createdAt,value
2019-05-09T00:02:10.068Z,92.99
2019-05-09T00:04:37.828Z,93.11
2019-05-09T00:07:05.328Z,92.92
2019-05-09T00:09:33.717Z,91.74
2019-05-09T00:12:03.547Z,91.85
2019-05-09T00:14:30.584Z,92.41
2019-05-09T00:16:58.084Z,92.49
2019-05-09T00:19:26.248Z,92.54
2019-05-09T00:21:55.122Z,93.00
2019-05-09T00:24:23.862Z,93.04
2019-05-09T00:26:53.342Z,92.97
2019-05-09T00:29:34.612Z,92.79
2019-05-09T00:32:03.756Z,92.88
2019-05-09T00:34:49.228Z,92.57
2019-05-09T00:37:16.735Z,92.49
2019-05-09T00:39:44.224Z,91.88
2019-05-09T00:42:13.681Z,91.42
2019-05-09T00:44:43.245Z,91.43
2019-05-09T00:47:13.514Z,91.50
2019-05-09T00:49:43.390Z,91.21
2019-05-09T00:52:10.367Z,91.22
2019-05-09T00:54:37.867Z,91.14
2019-05-09T00:57:05.365Z,91.13
2019-05-09T00:59:33.636Z,91.03
2019-05-09T01:02:03.218Z,91.19
2019-05-09T01:04:33.248Z,91.24
2019-05-09T01:07:03.448Z,91.59
2019-05-09T01:09:33.217Z,91.57
2019-05-09T01:12:00.368Z,91.43
2019-05-09T01:14:27.877Z,91.75
2019-05-09T01:16:55.368Z,91.97
2019-05-09T01:19:23.535Z,91.87
2019-05-09T01:21:54.035Z,91.64
2019-05-09T01:24:23.130Z,91.50
2019-05-09T01:26:50.128Z,91.29
2019-05-09T01:29:17.632Z,91.63
2019-05-09T01:31:45.124Z,91.54
2019-05-09T01:34:20.265Z,91.21
2019-05-09T01:37:06.927Z,91.54
2019-05-09T01:39:34.888Z,92.04
2019-05-09T01:42:03.258Z,92.12
2019-05-09T01:44:33.312Z,92.19
2019-05-09T01:47:00.275Z,92.06
2019-05-09T01:49:27.776Z,92.06
2019-05-09T01:51:55.263Z,92.20
2019-05-09T01:54:24.192Z,92.29
2019-05-09T01:56:53.609Z,92.08
2019-05-09T01:59:20.920Z,92.32
2019-05-09T02:01:48.412Z,92.38
2019-05-09T02:04:15.916Z,92.39
2019-05-09T02:06:44.033Z,92.11
2019-05-09T02:09:13.885Z,92.37
2019-05-09T02:11:44.968Z,92.43
2019-05-09T02:14:13.502Z,92.21
2019-05-09T02:16:58.677Z,92.34
2019-05-09T02:19:28.780Z,92.50
2019-05-09T02:21:56.549Z,92.36
2019-05-09T02:24:24.040Z,92.46
2019-05-09T02:26:53.313Z,92.13
2019-05-09T02:29:23.171Z,91.96
2019-05-09T02:31:50.651Z,91.30
2019-05-09T02:34:18.188Z,91.33
2019-05-09T02:36:49.393Z,91.30
2019-05-09T02:39:18.646Z,91.37
2019-05-09T02:42:02.518Z,91.32
2019-05-09T02:44:14.101Z,91.41
2019-05-09T02:46:43.238Z,91.00
2019-05-09T02:49:10.753Z,91.10
2019-05-09T02:51:39.102Z,90.77
2019-05-09T02:54:09.988Z,90.91
2019-05-09T02:56:38.574Z,91.01
2019-05-09T02:59:18.925Z,90.53
2019-05-09T03:01:50.525Z,90.68
2019-05-09T03:04:19.012Z,90.69
2019-05-09T03:06:49.273Z,90.54
2019-05-09T03:09:18.733Z,90.38
2019-05-09T03:11:48.294Z,90.26
2019-05-09T03:14:14.378Z,90.32
2019-05-09T03:16:41.876Z,90.20
2019-05-09T03:19:09.541Z,89.89
2019-05-09T03:21:39.343Z,90.04
2019-05-09T03:24:09.864Z,90.62
2019-05-09T03:26:38.666Z,90.48
2019-05-09T03:29:11.564Z,90.86
2019-05-09T03:31:40.838Z,89.78
2019-05-09T03:34:09.358Z,90.14
2019-05-09T03:36:38.546Z,89.77
2019-05-09T03:39:08.183Z,90.00
2019-05-09T03:41:35.824Z,90.28
2019-05-09T03:44:03.314Z,90.19
2019-05-09T03:46:41.684Z,90.21
2019-05-09T03:49:10.809Z,90.85
2019-05-09T03:51:38.312Z,90.26
2019-05-09T03:54:07.882Z,90.54
2019-05-09T03:56:37.547Z,90.77
2019-05-09T03:59:05.132Z,91.29
2019-05-09T04:01:32.649Z,91.50
2019-05-09T04:04:00.188Z,91.56
2019-05-09T04:06:28.342Z,91.59
2019-05-09T04:08:58.263Z,91.63
2019-05-09T04:11:27.529Z,90.83
2019-05-09T04:13:59.316Z,91.29
2019-05-09T04:16:27.684Z,91.15
2019-05-09T04:18:55.399Z,91.43
2019-05-09T04:21:23.225Z,91.63
2019-05-09T04:23:51.524Z,91.67
2019-05-09T04:26:20.668Z,91.26
2019-05-09T04:28:48.928Z,91.32
2019-05-09T04:31:17.827Z,91.64
2019-05-09T04:33:47.354Z,91.42
2019-05-09T04:36:15.493Z,91.64
2019-05-09T04:38:43.755Z,91.08
2019-05-09T04:41:11.275Z,91.32
2019-05-09T04:43:42.144Z,91.55
2019-05-09T04:46:13.113Z,91.59
2019-05-09T04:48:38.864Z,91.37
2019-05-09T04:51:07.803Z,91.36
2019-05-09T04:53:37.750Z,90.84
2019-05-09T04:56:19.429Z,91.02
2019-05-09T04:58:48.192Z,90.76
2019-05-09T05:01:19.745Z,90.99
2019-05-09T05:03:48.006Z,90.10
2019-05-09T05:06:18.762Z,90.33
2019-05-09T05:08:44.776Z,90.46
2019-05-09T05:11:12.264Z,91.01
2019-05-09T05:13:39.766Z,90.92
2019-05-09T05:16:08.456Z,91.04
2019-05-09T05:18:37.416Z,90.92
2019-05-09T05:21:05.111Z,90.43
2019-05-09T05:23:34.537Z,91.06
2019-05-09T05:26:02.026Z,90.83
2019-05-09T05:28:29.519Z,90.46
2019-05-09T05:30:58.186Z,90.41
2019-05-09T05:33:27.858Z,90.89
2019-05-09T05:35:59.979Z,90.83
2019-05-09T05:38:27.780Z,90.81
2019-05-09T05:40:57.705Z,90.46
2019-05-09T05:43:38.538Z,90.89
2019-05-09T05:45:55.351Z,90.35
2019-05-09T05:48:24.498Z,89.81
2019-05-09T05:50:52.057Z,89.08
2019-05-09T05:53:19.556Z,90.38
2019-05-09T05:55:50.471Z,89.42
2019-05-09T05:58:17.990Z,89.41
2019-05-09T06:00:45.640Z,88.19
2019-05-09T06:03:13.912Z,88.84
2019-05-09T06:05:41.397Z,88.72
2019-05-09T06:08:09.573Z,89.17
2019-05-09T06:10:37.897Z,88.43
2019-05-09T06:13:07.695Z,87.30
2019-05-09T06:15:34.629Z,87.58
2019-05-09T06:18:02.128Z,87.08
2019-05-09T06:20:29.621Z,87.69
2019-05-09T06:22:58.144Z,85.91
2019-05-09T06:25:30.073Z,86.83
2019-05-09T06:27:55.693Z,87.54
2019-05-09T06:30:28.116Z,87.50
2019-05-09T06:32:57.836Z,87.50
2019-05-09T06:35:24.932Z,86.12
2019-05-09T06:37:52.425Z,84.94
2019-05-09T06:40:21.529Z,88.32
2019-05-09T06:42:49.560Z,83.80
2019-05-09T06:45:32.440Z,83.06
2019-05-09T06:48:00.396Z,83.32
2019-05-09T06:50:28.127Z,82.11
2019-05-09T06:52:57.318Z,79.57
2019-05-09T06:55:27.642Z,81.37
2019-05-09T06:57:58.363Z,80.01
2019-05-09T07:00:28.749Z,80.71
2019-05-09T07:03:01.044Z,78.00
2019-05-09T07:05:48.114Z,77.79
2019-05-09T07:08:18.334Z,78.03
2019-05-09T07:10:48.327Z,78.61
2019-05-09T07:13:15.492Z,80.80
2019-05-09T07:15:42.999Z,77.96
2019-05-09T07:18:10.517Z,78.92
2019-05-09T07:20:38.072Z,77.56
2019-05-09T07:23:08.377Z,76.71
2019-05-09T07:25:40.096Z,77.55
2019-05-09T07:28:07.764Z,76.23
2019-05-09T07:30:52.337Z,75.80
2019-05-09T07:33:24.424Z,76.12
2019-05-09T07:35:51.929Z,76.00
2019-05-09T07:38:29.352Z,76.32
2019-05-09T07:40:58.037Z,75.39
2019-05-09T07:43:28.058Z,75.86
2019-05-09T07:46:04.808Z,75.93
2019-05-09T07:48:32.305Z,74.34
2019-05-09T07:50:59.863Z,73.97
2019-05-09T07:53:28.386Z,72.85
2019-05-09T07:55:58.059Z,74.62
2019-05-09T07:58:25.189Z,73.66
2019-05-09T08:00:52.692Z,72.94
2019-05-09T08:03:20.184Z,72.79
2019-05-09T08:05:47.760Z,72.07
2019-05-09T08:08:18.355Z,73.85
2019-05-09T08:10:45.067Z,73.58
2019-05-09T08:13:12.565Z,73.02
2019-05-09T08:15:40.072Z,73.54
2019-05-09T08:18:08.430Z,69.94
2019-05-09T08:20:40.390Z,73.58
2019-05-09T08:23:08.442Z,69.21
2019-05-09T08:25:34.810Z,70.68
2019-05-09T08:28:02.540Z,70.83
2019-05-09T08:30:35.896Z,70.78
2019-05-09T08:33:00.292Z,71.75
2019-05-09T08:35:28.091Z,69.68
2019-05-09T08:37:58.307Z,69.59
2019-05-09T08:40:28.344Z,67.98
2019-05-09T08:42:55.655Z,65.50
2019-05-09T08:45:27.598Z,66.94
2019-05-09T08:47:53.652Z,65.08
2019-05-09T08:50:28.461Z,65.59
2019-05-09T08:52:57.673Z,63.03
2019-05-09T08:55:27.532Z,62.58
2019-05-09T08:57:54.948Z,64.22
2019-05-09T09:00:22.444Z,66.61
2019-05-09T09:02:50.269Z,66.54
2019-05-09T09:05:18.792Z,68.13
2019-05-09T09:07:48.755Z,65.32
2019-05-09T09:10:18.643Z,65.88
2019-05-09T09:12:47.742Z,66.23
2019-05-09T09:15:14.864Z,64.15
2019-05-09T09:17:43.136Z,65.36
2019-05-09T09:20:10.638Z,66.88
2019-05-09T09:22:38.144Z,67.88
2019-05-09T09:25:07.732Z,69.39
2019-05-09T09:27:34.869Z,65.33
2019-05-09T09:30:16.386Z,65.39
2019-05-09T09:32:31.665Z,66.03
2019-05-09T09:34:59.168Z,63.40
2019-05-09T09:37:37.497Z,63.56
2019-05-09T09:39:58.236Z,64.59
2019-05-09T09:42:28.208Z,66.34
2019-05-09T09:44:55.265Z,65.40
2019-05-09T09:47:23.535Z,66.57
2019-05-09T09:49:51.159Z,66.29
2019-05-09T09:52:18.956Z,65.17
2019-05-09T09:54:48.088Z,66.26
2019-05-09T09:57:19.076Z,64.62
2019-05-09T09:59:53.320Z,64.75
2019-05-09T10:02:22.468Z,62.93
2019-05-09T10:04:50.208Z,63.83
2019-05-09T10:07:18.951Z,62.10
2019-05-09T10:09:47.988Z,63.34
2019-05-09T10:12:18.060Z,60.09
2019-05-09T10:14:49.460Z,61.71
2019-05-09T10:17:34.886Z,60.80
2019-05-09T10:20:04.021Z,61.78
2019-05-09T10:22:31.562Z,59.47
2019-05-09T10:24:59.132Z,63.53
2019-05-09T10:27:28.332Z,59.28
2019-05-09T10:29:57.463Z,56.57
2019-05-09T10:32:25.144Z,57.59
2019-05-09T10:34:52.640Z,60.99
2019-05-09T10:37:20.142Z,59.12
2019-05-09T10:39:49.042Z,59.19
2019-05-09T10:42:21.155Z,59.38
2019-05-09T10:45:07.500Z,58.67
2019-05-09T10:47:37.775Z,60.39
2019-05-09T10:50:08.463Z,59.68
2019-05-09T10:52:36.204Z,57.46
2019-05-09T10:55:04.477Z,59.39
2019-05-09T10:57:32.636Z,58.96
2019-05-09T11:00:01.141Z,58.54
2019-05-09T11:02:28.644Z,56.10
2019-05-09T11:04:57.626Z,56.43
2019-05-09T11:07:25.419Z,59.33
2019-05-09T11:09:53.245Z,58.62
2019-05-09T11:12:20.764Z,59.85
2019-05-09T11:14:48.924Z,55.43
2019-05-09T11:17:21.430Z,57.64
2019-05-09T11:19:48.068Z,57.07
2019-05-09T11:22:14.964Z,56.98
2019-05-09T11:24:46.642Z,56.58
2019-05-09T11:27:12.032Z,57.27
2019-05-09T11:29:39.540Z,54.28
2019-05-09T11:32:08.180Z,55.21
2019-05-09T11:34:37.569Z,56.46
2019-05-09T11:37:05.021Z,55.17
2019-05-09T11:39:39.726Z,53.21
2019-05-09T11:42:01.740Z,52.44
2019-05-09T11:44:29.245Z,54.40
2019-05-09T11:46:58.218Z,53.71
2019-05-09T11:49:25.920Z,53.90
2019-05-09T11:51:53.411Z,56.24
2019-05-09T11:54:20.913Z,53.90
2019-05-09T11:56:48.674Z,56.01
2019-05-09T11:59:18.198Z,52.08
2019-05-09T12:01:48.035Z,52.61
2019-05-09T12:04:15.417Z,55.96
2019-05-09T12:06:42.908Z,54.30
2019-05-09T12:09:14.118Z,56.54
2019-05-09T12:11:44.194Z,56.39
2019-05-09T12:14:09.061Z,55.31
2019-05-09T12:16:38.095Z,53.62
2019-05-09T12:19:05.823Z,51.08
2019-05-09T12:21:33.316Z,52.16
2019-05-09T12:24:00.820Z,52.33
2019-05-09T12:26:29.214Z,55.13
2019-05-09T12:28:57.807Z,53.46
2019-05-09T12:31:25.605Z,51.61
2019-05-09T12:33:53.103Z,54.50
2019-05-09T12:36:20.922Z,48.99
2019-05-09T12:38:49.644Z,50.61
2019-05-09T12:41:18.927Z,50.39
2019-05-09T12:43:47.636Z,50.86
2019-05-09T12:46:15.147Z,52.21
2019-05-09T12:48:42.642Z,51.58
2019-05-09T12:51:10.157Z,52.38
2019-05-09T12:53:39.563Z,52.77
2019-05-09T12:56:08.167Z,51.50
2019-05-09T12:58:35.952Z,48.57
2019-05-09T13:01:04.224Z,48.36
2019-05-09T13:03:31.723Z,49.09
2019-05-09T13:05:59.228Z,48.08
2019-05-09T13:08:27.855Z,49.07
2019-05-09T13:10:55.610Z,50.19
2019-05-09T13:13:23.431Z,51.25
2019-05-09T13:16:01.547Z,52.73
2019-05-09T13:18:48.967Z,52.21
2019-05-09T13:21:18.718Z,52.46
2019-05-09T13:23:51.925Z,53.80
2019-05-09T13:26:15.626Z,53.15
2019-05-09T13:28:43.116Z,52.85
2019-05-09T13:31:10.628Z,54.64
2019-05-09T13:33:40.996Z,52.63
2019-05-09T13:36:09.225Z,52.79
2019-05-09T13:38:37.826Z,54.21
2019-05-09T13:41:08.529Z,54.71
2019-05-09T13:43:44.695Z,55.35
2019-05-09T13:46:04.684Z,53.61
2019-05-09T13:48:56.255Z,54.44
2019-05-09T13:51:01.453Z,54.02
2019-05-09T13:53:28.970Z,53.59
2019-05-09T13:55:57.821Z,55.30
2019-05-09T13:58:25.565Z,55.13
2019-05-09T14:00:59.254Z,54.38
2019-05-09T14:03:22.297Z,54.71
2019-05-09T14:05:49.791Z,56.71
2019-05-09T14:08:18.211Z,56.55
2019-05-09T14:10:48.139Z,55.33
2019-05-09T14:13:15.883Z,55.36
2019-05-09T14:15:44.243Z,55.61
2019-05-09T14:18:11.956Z,55.30
2019-05-09T14:20:39.536Z,56.26
2019-05-09T14:23:11.406Z,57.13
2019-05-09T14:25:38.135Z,57.19
2019-05-09T14:28:08.306Z,57.87
2019-05-09T14:30:35.365Z,58.18
2019-05-09T14:33:02.974Z,57.82
2019-05-09T14:35:30.532Z,57.63
2019-05-09T14:37:59.109Z,57.76
2019-05-09T14:40:28.078Z,59.29
2019-05-09T14:42:57.817Z,58.51
2019-05-09T14:45:27.418Z,58.12
2019-05-09T14:47:54.667Z,57.51
2019-05-09T14:50:22.156Z,58.39
2019-05-09T14:52:50.642Z,58.67
2019-05-09T14:55:18.292Z,58.86
2019-05-09T14:57:47.967Z,57.83
2019-05-09T15:00:15.031Z,57.86
2019-05-09T15:02:42.540Z,57.31
2019-05-09T15:05:10.808Z,58.10
2019-05-09T15:07:39.136Z,57.72
2019-05-09T15:10:08.587Z,57.45
2019-05-09T15:12:38.780Z,58.83
2019-05-09T15:15:07.615Z,59.67
2019-05-09T15:17:35.434Z,60.85
2019-05-09T15:20:03.393Z,60.02
2019-05-09T15:22:31.669Z,61.95
2019-05-09T15:24:59.948Z,58.62
2019-05-09T15:27:27.763Z,60.85
2019-05-09T15:29:55.425Z,59.48
2019-05-09T15:32:22.931Z,60.98
2019-05-09T15:34:50.430Z,59.33
2019-05-09T15:37:18.635Z,60.29
2019-05-09T15:39:48.458Z,59.11
2019-05-09T15:42:18.079Z,58.61
2019-05-09T15:44:44.941Z,59.80
2019-05-09T15:47:14.083Z,60.50
2019-05-09T15:49:41.578Z,60.31
2019-05-09T15:52:09.081Z,59.99
2019-05-09T15:54:38.629Z,60.43
2019-05-09T15:57:08.472Z,60.47
2019-05-09T15:59:35.156Z,61.27
2019-05-09T16:02:03.431Z,61.49
2019-05-09T16:04:31.695Z,60.14
2019-05-09T16:06:59.214Z,59.51
2019-05-09T16:09:28.617Z,60.42
2019-05-09T16:11:56.237Z,60.88
2019-05-09T16:14:23.727Z,59.87
2019-05-09T16:16:51.224Z,60.53
2019-05-09T16:19:19.574Z,61.03
2019-05-09T16:21:47.762Z,61.30
2019-05-09T16:24:15.450Z,61.52
2019-05-09T16:26:42.945Z,61.16
2019-05-09T16:29:10.453Z,63.22
2019-05-09T16:31:38.814Z,62.34
2019-05-09T16:34:09.397Z,62.48
2019-05-09T16:36:38.275Z,62.41
2019-05-09T16:39:07.387Z,61.73
2019-05-09T16:41:35.081Z,62.20
2019-05-09T16:44:02.590Z,61.65
2019-05-09T16:46:30.091Z,61.73
2019-05-09T16:48:58.152Z,61.51
2019-05-09T16:51:25.855Z,62.28
2019-05-09T16:53:53.364Z,62.19
2019-05-09T16:56:20.892Z,61.86
2019-05-09T16:58:48.393Z,62.06
2019-05-09T17:01:18.561Z,61.64
2019-05-09T17:03:45.593Z,62.01
2019-05-09T17:06:13.088Z,63.16
2019-05-09T17:08:40.596Z,62.93
2019-05-09T17:11:08.087Z,63.12
2019-05-09T17:13:35.617Z,63.85
2019-05-09T17:16:03.106Z,64.19
2019-05-09T17:18:30.620Z,63.97
2019-05-09T17:21:21.485Z,64.00
2019-05-09T17:23:47.598Z,63.57
2019-05-09T17:26:17.560Z,64.28
2019-05-09T17:28:45.148Z,65.07
2019-05-09T17:31:12.696Z,64.05
2019-05-09T17:33:40.201Z,63.90
2019-05-09T17:36:07.697Z,64.20
2019-05-09T17:38:35.447Z,64.89
2019-05-09T17:41:02.992Z,64.78
2019-05-09T17:43:30.514Z,64.42
2019-05-09T17:45:58.613Z,64.40
2019-05-09T17:48:28.526Z,64.82
2019-05-09T17:50:57.864Z,63.86
2019-05-09T17:53:24.984Z,64.92
2019-05-09T17:55:53.260Z,64.51
2019-05-09T17:58:29.312Z,64.69
2019-05-09T18:00:50.060Z,65.07
2019-05-09T18:03:18.170Z,65.41
2019-05-09T18:05:48.358Z,69.10
2019-05-09T18:08:15.156Z,69.34
2019-05-09T18:10:43.351Z,70.87
2019-05-09T18:13:11.612Z,71.29
2019-05-09T18:15:39.123Z,71.73
2019-05-09T18:18:06.787Z,70.95
2019-05-09T18:20:34.338Z,70.51
2019-05-09T18:23:03.384Z,69.79
2019-05-09T18:25:31.063Z,70.46
2019-05-09T18:27:58.548Z,70.89
2019-05-09T18:30:27.924Z,70.63
2019-05-09T18:33:00.074Z,71.02
2019-05-09T18:35:29.453Z,72.09
2019-05-09T18:37:58.859Z,72.28
2019-05-09T18:40:28.184Z,73.22
2019-05-09T18:42:58.225Z,72.06
2019-05-09T18:45:25.191Z,75.06
2019-05-09T18:47:52.691Z,75.30
2019-05-09T18:50:20.197Z,76.90
2019-05-09T18:52:47.687Z,77.43
2019-05-09T18:55:15.193Z,77.82
2019-05-09T18:57:42.689Z,79.08
2019-05-09T19:00:10.770Z,78.75
2019-05-09T19:02:38.684Z,78.72
2019-05-09T19:05:06.457Z,80.38
2019-05-09T19:07:33.948Z,79.62
2019-05-09T19:10:01.452Z,80.69
2019-05-09T19:12:28.993Z,81.40
2019-05-09T19:14:56.516Z,82.27
2019-05-09T19:17:40.933Z,82.13
2019-05-09T19:20:19.331Z,82.31
2019-05-09T19:22:46.821Z,82.06
2019-05-09T19:25:14.617Z,82.92
2019-05-09T19:27:42.161Z,82.03
2019-05-09T19:30:09.652Z,83.06
2019-05-09T19:32:37.151Z,82.92
2019-05-09T19:35:05.413Z,84.09
2019-05-09T19:37:32.916Z,83.56
2019-05-09T19:40:00.408Z,84.19
2019-05-09T19:42:27.908Z,83.93
2019-05-09T19:44:55.427Z,83.77
2019-05-09T19:47:22.932Z,84.70
2019-05-09T19:49:50.416Z,84.35
2019-05-09T19:52:18.323Z,84.40
2019-05-09T19:54:46.598Z,84.25
2019-05-09T19:57:14.119Z,84.10
2019-05-09T19:59:41.604Z,84.81
2019-05-09T20:02:09.130Z,84.52
2019-05-09T20:04:36.603Z,85.07
2019-05-09T20:07:04.109Z,84.25
2019-05-09T20:09:45.299Z,85.25
2019-05-09T20:12:29.516Z,86.18
2019-05-09T20:14:56.997Z,84.76
2019-05-09T20:17:24.928Z,85.52
2019-05-09T20:19:52.462Z,86.11
2019-05-09T20:22:19.962Z,87.20
2019-05-09T20:24:47.446Z,87.16
2019-05-09T20:27:15.695Z,87.51
2019-05-09T20:29:43.521Z,86.18
2019-05-09T20:32:11.683Z,86.74
2019-05-09T20:34:39.898Z,87.95
2019-05-09T20:37:07.418Z,86.55
2019-05-09T20:39:35.140Z,87.55
2019-05-09T20:42:02.829Z,88.06
2019-05-09T20:44:31.281Z,86.65
2019-05-09T20:46:58.964Z,88.56
2019-05-09T20:49:26.641Z,88.24
2019-05-09T20:51:54.330Z,87.69
2019-05-09T20:54:22.023Z,88.16
2019-05-09T20:56:49.965Z,87.80
2019-05-09T20:59:17.668Z,87.83
2019-05-09T21:01:45.341Z,88.27
2019-05-09T21:04:13.025Z,88.46
2019-05-09T21:06:40.695Z,87.42
2019-05-09T21:09:09.147Z,88.22
2019-05-09T21:11:36.824Z,89.02
2019-05-09T21:14:05.284Z,89.15
2019-05-09T21:16:33.032Z,88.91
2019-05-09T21:19:00.720Z,87.98
2019-05-09T21:21:28.401Z,89.13
2019-05-09T21:23:56.089Z,89.28
2019-05-09T21:26:23.760Z,89.39
2019-05-09T21:28:51.441Z,89.74
2019-05-09T21:31:19.116Z,90.12
2019-05-09T21:33:46.799Z,89.90
2019-05-09T21:36:15.061Z,89.36
2019-05-09T21:38:42.564Z,89.42
2019-05-09T21:41:10.054Z,89.33
2019-05-09T21:43:37.553Z,88.83
2019-05-09T21:46:05.046Z,88.14
2019-05-09T21:48:32.546Z,88.11
2019-05-09T21:51:00.027Z,88.35
2019-05-09T21:53:39.828Z,88.08
2019-05-09T21:55:56.753Z,88.51
2019-05-09T21:58:24.924Z,88.09
2019-05-09T22:00:53.059Z,87.28
2019-05-09T22:03:21.325Z,87.14
2019-05-09T22:05:49.143Z,87.48
2019-05-09T22:08:16.635Z,87.60
2019-05-09T22:10:44.128Z,86.95
2019-05-09T22:13:11.625Z,87.09
2019-05-09T22:15:39.381Z,88.00
2019-05-09T22:18:06.881Z,88.03
2019-05-09T22:20:34.373Z,88.09
2019-05-09T22:23:01.873Z,88.44
2019-05-09T22:25:30.028Z,87.65
2019-05-09T22:27:57.516Z,88.79
2019-05-09T22:30:25.016Z,88.55
2019-05-09T22:32:52.519Z,88.04
2019-05-09T22:35:20.092Z,87.95
2019-05-09T22:37:48.258Z,89.02
2019-05-09T22:40:15.848Z,89.99
2019-05-09T22:42:43.339Z,88.94
2019-05-09T22:45:10.840Z,89.12
2019-05-09T22:47:38.332Z,89.51
2019-05-09T22:50:06.147Z,89.60
2019-05-09T22:52:33.646Z,89.43
2019-05-09T22:55:01.139Z,89.46
2019-05-09T22:57:28.638Z,89.62
2019-05-09T22:59:56.140Z,89.74
2019-05-09T23:02:23.952Z,89.92
2019-05-09T23:04:51.448Z,89.55
2019-05-09T23:07:19.280Z,89.59
2019-05-09T23:09:46.780Z,89.64
2019-05-09T23:12:14.340Z,89.59
2019-05-09T23:14:41.836Z,89.62
2019-05-09T23:17:09.700Z,89.85
2019-05-09T23:19:37.217Z,90.09
2019-05-09T23:22:05.036Z,89.71
2019-05-09T23:24:34.455Z,89.99
2019-05-09T23:27:01.949Z,89.23
2019-05-09T23:29:29.523Z,89.26
2019-05-09T23:32:10.954Z,89.33
2019-05-09T23:34:38.459Z,89.27
2019-05-09T23:37:05.953Z,89.57
2019-05-09T23:39:35.093Z,89.69
2019-05-09T23:42:02.579Z,89.12
2019-05-09T23:44:30.080Z,88.55
2019-05-09T23:46:57.575Z,87.72
2019-05-09T23:49:25.072Z,87.71
2019-05-09T23:51:52.569Z,87.31
2019-05-09T23:54:47.372Z,87.61
2019-05-09T23:57:26.525Z,87.34
